sensor_id;sensor_type;location;lat;lon;timestamp;P1;durP1;ratioP1;P2;durP2;ratioP2
71753;SDS011;59593;51.716;7.016;2022-07-05T00:00:13;6.72;;;2.30;;
71753;SDS011;59593;51.716;7.016;2022-07-05T00:02:39;3.47;;;2.40;;
71753;SDS011;59593;51.716;7.016;2022-07-05T00:05:05;4.38;;;2.50;;
71753;SDS011;59593;51.716;7.016;2022-07-05T00:07:31;3.38;;;2.50;;
71753;SDS011;59593;51.716;7.016;2022-07-05T00:09:57;4.30;;;2.63;;
71753;SDS011;59593;51.716;7.016;2022-07-05T00:12:25;3.55;;;2.75;;
71753;SDS011;59593;51.716;7.016;2022-07-05T00:14:52;3.80;;;2.60;;
71753;SDS011;59593;51.716;7.016;2022-07-05T00:17:18;2.85;;;2.60;;
71753;SDS011;59593;51.716;7.016;2022-07-05T00:19:44;4.10;;;2.85;;
71753;SDS011;59593;51.716;7.016;2022-07-05T00:22:10;3.55;;;2.20;;
71753;SDS011;59593;51.716;7.016;2022-07-05T00:24:36;4.38;;;2.65;;
71753;SDS011;59593;51.716;7.016;2022-07-05T00:27:02;3.45;;;2.45;;
71753;SDS011;59593;51.716;7.016;2022-07-05T00:29:27;7.50;;;2.67;;
71753;SDS011;59593;51.716;7.016;2022-07-05T00:31:53;3.17;;;2.63;;
71753;SDS011;59593;51.716;7.016;2022-07-05T00:34:19;4.13;;;2.80;;
71753;SDS011;59593;51.716;7.016;2022-07-05T00:36:45;4.25;;;2.97;;
71753;SDS011;59593;51.716;7.016;2022-07-05T00:39:11;3.25;;;2.70;;
71753;SDS011;59593;51.716;7.016;2022-07-05T00:41:37;3.05;;;2.80;;
71753;SDS011;59593;51.716;7.016;2022-07-05T00:44:04;4.63;;;3.15;;
71753;SDS011;59593;51.716;7.016;2022-07-05T00:46:31;5.25;;;3.28;;
71753;SDS011;59593;51.716;7.016;2022-07-05T00:48:58;4.88;;;3.42;;
71753;SDS011;59593;51.716;7.016;2022-07-05T00:51:25;6.22;;;3.13;;
71753;SDS011;59593;51.716;7.016;2022-07-05T00:53:54;3.85;;;3.17;;
71753;SDS011;59593;51.716;7.016;2022-07-05T00:56:20;4.05;;;3.17;;
71753;SDS011;59593;51.716;7.016;2022-07-05T00:58:48;3.92;;;3.13;;
71753;SDS011;59593;51.716;7.016;2022-07-05T01:01:15;3.63;;;3.10;;
71753;SDS011;59593;51.716;7.016;2022-07-05T01:03:41;4.28;;;3.08;;
71753;SDS011;59593;51.716;7.016;2022-07-05T01:06:09;3.15;;;2.85;;
71753;SDS011;59593;51.716;7.016;2022-07-05T01:08:39;3.42;;;3.10;;
71753;SDS011;59593;51.716;7.016;2022-07-05T01:11:06;5.55;;;2.92;;
71753;SDS011;59593;51.716;7.016;2022-07-05T01:13:36;4.40;;;2.92;;
71753;SDS011;59593;51.716;7.016;2022-07-05T01:16:02;3.00;;;2.70;;
71753;SDS011;59593;51.716;7.016;2022-07-05T01:18:31;7.15;;;3.10;;
71753;SDS011;59593;51.716;7.016;2022-07-05T01:20:57;3.42;;;2.90;;
71753;SDS011;59593;51.716;7.016;2022-07-05T01:23:26;4.35;;;3.08;;
71753;SDS011;59593;51.716;7.016;2022-07-05T01:25:52;5.80;;;3.10;;
71753;SDS011;59593;51.716;7.016;2022-07-05T01:28:19;3.75;;;2.80;;
71753;SDS011;59593;51.716;7.016;2022-07-05T01:30:45;3.75;;;2.75;;
71753;SDS011;59593;51.716;7.016;2022-07-05T01:33:12;6.78;;;3.13;;
71753;SDS011;59593;51.716;7.016;2022-07-05T01:35:38;3.25;;;2.50;;
71753;SDS011;59593;51.716;7.016;2022-07-05T01:38:04;4.25;;;3.25;;
71753;SDS011;59593;51.716;7.016;2022-07-05T01:40:30;6.60;;;3.25;;
71753;SDS011;59593;51.716;7.016;2022-07-05T01:42:57;3.63;;;2.88;;
71753;SDS011;59593;51.716;7.016;2022-07-05T01:45:24;4.10;;;2.97;;
71753;SDS011;59593;51.716;7.016;2022-07-05T01:48:06;5.32;;;3.10;;
71753;SDS011;59593;51.716;7.016;2022-07-05T01:50:34;4.85;;;3.00;;
71753;SDS011;59593;51.716;7.016;2022-07-05T01:53:03;4.20;;;2.80;;
71753;SDS011;59593;51.716;7.016;2022-07-05T01:55:31;4.90;;;2.90;;
71753;SDS011;59593;51.716;7.016;2022-07-05T01:57:56;4.57;;;3.10;;
71753;SDS011;59593;51.716;7.016;2022-07-05T02:00:23;3.00;;;2.70;;
71753;SDS011;59593;51.716;7.016;2022-07-05T02:02:49;7.60;;;3.53;;
71753;SDS011;59593;51.716;7.016;2022-07-05T02:05:15;4.18;;;3.22;;
71753;SDS011;59593;51.716;7.016;2022-07-05T02:07:47;3.65;;;2.83;;
71753;SDS011;59593;51.716;7.016;2022-07-05T02:10:13;4.55;;;3.08;;
71753;SDS011;59593;51.716;7.016;2022-07-05T02:12:39;5.05;;;3.08;;
71753;SDS011;59593;51.716;7.016;2022-07-05T02:15:30;3.75;;;3.30;;
71753;SDS011;59593;51.716;7.016;2022-07-05T02:18:25;5.57;;;3.15;;
71753;SDS011;59593;51.716;7.016;2022-07-05T02:21:16;3.25;;;2.95;;
71753;SDS011;59593;51.716;7.016;2022-07-05T02:24:07;3.92;;;3.20;;
71753;SDS011;59593;51.716;7.016;2022-07-05T02:26:59;3.45;;;2.97;;
71753;SDS011;59593;51.716;7.016;2022-07-05T02:29:50;6.10;;;3.20;;
71753;SDS011;59593;51.716;7.016;2022-07-05T02:32:41;3.30;;;3.00;;
71753;SDS011;59593;51.716;7.016;2022-07-05T02:35:32;4.18;;;3.20;;
71753;SDS011;59593;51.716;7.016;2022-07-05T02:38:23;5.03;;;3.30;;
71753;SDS011;59593;51.716;7.016;2022-07-05T02:41:14;4.67;;;3.20;;
71753;SDS011;59593;51.716;7.016;2022-07-05T02:44:05;4.68;;;3.08;;
71753;SDS011;59593;51.716;7.016;2022-07-05T02:46:56;5.75;;;3.33;;
71753;SDS011;59593;51.716;7.016;2022-07-05T02:49:47;5.55;;;3.40;;
71753;SDS011;59593;51.716;7.016;2022-07-05T02:52:38;5.00;;;3.40;;
71753;SDS011;59593;51.716;7.016;2022-07-05T02:55:29;6.25;;;3.10;;
71753;SDS011;59593;51.716;7.016;2022-07-05T02:58:20;4.17;;;3.13;;
71753;SDS011;59593;51.716;7.016;2022-07-05T03:01:11;4.25;;;3.47;;
71753;SDS011;59593;51.716;7.016;2022-07-05T03:04:02;4.80;;;3.70;;
71753;SDS011;59593;51.716;7.016;2022-07-05T03:06:53;4.68;;;3.70;;
71753;SDS011;59593;51.716;7.016;2022-07-05T03:09:44;5.85;;;3.40;;
71753;SDS011;59593;51.716;7.016;2022-07-05T03:12:35;4.18;;;3.35;;
71753;SDS011;59593;51.716;7.016;2022-07-05T03:15:26;3.95;;;3.53;;
71753;SDS011;59593;51.716;7.016;2022-07-05T03:18:17;4.53;;;3.80;;
71753;SDS011;59593;51.716;7.016;2022-07-05T03:21:08;7.40;;;3.70;;
71753;SDS011;59593;51.716;7.016;2022-07-05T03:23:59;5.30;;;3.37;;
71753;SDS011;59593;51.716;7.016;2022-07-05T03:26:50;3.85;;;3.55;;
71753;SDS011;59593;51.716;7.016;2022-07-05T03:29:42;4.65;;;3.78;;
71753;SDS011;59593;51.716;7.016;2022-07-05T03:32:33;8.13;;;3.58;;
71753;SDS011;59593;51.716;7.016;2022-07-05T03:35:24;4.63;;;3.70;;
71753;SDS011;59593;51.716;7.016;2022-07-05T03:38:17;5.07;;;3.70;;
71753;SDS011;59593;51.716;7.016;2022-07-05T03:41:08;5.27;;;4.07;;
71753;SDS011;59593;51.716;7.016;2022-07-05T03:43:59;5.72;;;4.00;;
71753;SDS011;59593;51.716;7.016;2022-07-05T03:46:50;4.55;;;3.78;;
71753;SDS011;59593;51.716;7.016;2022-07-05T03:49:41;5.90;;;3.97;;
71753;SDS011;59593;51.716;7.016;2022-07-05T03:52:32;4.55;;;3.80;;
71753;SDS011;59593;51.716;7.016;2022-07-05T03:55:23;5.22;;;4.20;;
71753;SDS011;59593;51.716;7.016;2022-07-05T03:58:14;4.22;;;3.80;;
71753;SDS011;59593;51.716;7.016;2022-07-05T04:01:05;5.57;;;3.97;;
71753;SDS011;59593;51.716;7.016;2022-07-05T04:03:56;4.32;;;3.83;;
71753;SDS011;59593;51.716;7.016;2022-07-05T04:06:47;5.13;;;3.85;;
71753;SDS011;59593;51.716;7.016;2022-07-05T04:09:38;4.80;;;4.30;;
71753;SDS011;59593;51.716;7.016;2022-07-05T04:12:29;6.57;;;4.00;;
